createdAt,value
2022-11-15T00:00:27.264Z,12.33
2022-11-15T00:02:17.520Z,13.83
2022-11-15T00:04:08.019Z,15.13
2022-11-15T00:06:03.975Z,13.47
2022-11-15T00:07:55.972Z,13.53
2022-11-15T00:09:46.377Z,18.13
2022-11-15T00:11:36.523Z,14.17
2022-11-15T00:13:27.853Z,15.73
2022-11-15T00:15:17.851Z,12.77
2022-11-15T00:17:08.080Z,13.20
2022-11-15T00:18:58.859Z,15.33
2022-11-15T00:20:49.179Z,12.70
2022-11-15T00:22:39.566Z,16.13
2022-11-15T00:24:29.883Z,15.20
2022-11-15T00:26:20.327Z,15.63
2022-11-15T00:28:10.773Z,17.60
2022-11-15T00:30:00.981Z,15.97
2022-11-15T00:31:51.252Z,12.10
2022-11-15T00:33:44.932Z,17.03
2022-11-15T00:35:35.872Z,13.60
2022-11-15T00:37:26.220Z,13.97
2022-11-15T00:39:16.627Z,13.47
2022-11-15T00:41:09.889Z,16.97
2022-11-15T00:43:00.255Z,14.50
2022-11-15T00:44:50.600Z,12.83
2022-11-15T00:46:41.016Z,14.50
2022-11-15T00:48:32.257Z,15.07
2022-11-15T00:50:22.516Z,13.50
2022-11-15T00:52:12.864Z,14.13
2022-11-15T00:54:03.312Z,14.73
2022-11-15T00:55:53.852Z,16.63
2022-11-15T00:57:44.782Z,13.77
2022-11-15T00:59:34.909Z,16.50
2022-11-15T01:01:25.329Z,15.77
2022-11-15T01:03:15.603Z,13.60
2022-11-15T01:05:07.272Z,15.87
2022-11-15T01:06:57.691Z,15.80
2022-11-15T01:08:48.093Z,15.17
2022-11-15T01:10:38.409Z,16.30
2022-11-15T01:12:28.785Z,16.03
2022-11-15T01:14:24.169Z,13.47
2022-11-15T01:16:19.342Z,14.60
2022-11-15T01:18:09.713Z,15.13
2022-11-15T01:20:00.029Z,15.70
2022-11-15T01:21:51.148Z,16.40
2022-11-15T01:23:41.605Z,15.57
2022-11-15T01:25:32.149Z,14.70
2022-11-15T01:27:22.731Z,12.80
2022-11-15T01:29:13.219Z,13.53
2022-11-15T01:31:05.679Z,16.50
2022-11-15T01:32:55.829Z,14.83
2022-11-15T01:34:46.189Z,16.63
2022-11-15T01:36:36.677Z,17.00
2022-11-15T01:38:27.081Z,14.60
2022-11-15T01:40:17.401Z,13.50
2022-11-15T01:42:13.245Z,16.30
2022-11-15T01:44:31.661Z,14.33
2022-11-15T01:46:30.362Z,13.30
2022-11-15T01:48:21.151Z,13.07
2022-11-15T01:50:16.019Z,14.10
2022-11-15T01:52:10.465Z,15.10
2022-11-15T01:54:07.178Z,14.00
2022-11-15T01:55:57.538Z,13.53
2022-11-15T01:57:50.110Z,13.90
2022-11-15T01:59:44.500Z,14.23
2022-11-15T02:01:35.764Z,11.83
2022-11-15T02:03:35.192Z,11.13
2022-11-15T02:05:25.461Z,15.33
2022-11-15T02:07:19.207Z,15.67
2022-11-15T02:09:09.429Z,14.63
2022-11-15T02:10:59.813Z,14.27
2022-11-15T02:12:51.450Z,16.10
2022-11-15T02:14:45.619Z,13.07
2022-11-15T02:16:55.882Z,16.60
2022-11-15T02:19:29.498Z,12.83
2022-11-15T02:21:37.583Z,13.27
2022-11-15T02:23:45.854Z,15.27
2022-11-15T02:26:00.834Z,15.23
2022-11-15T02:28:22.126Z,14.20
2022-11-15T02:30:15.314Z,10.80
2022-11-15T02:32:15.399Z,17.00
2022-11-15T02:34:29.159Z,18.37
2022-11-15T02:36:44.988Z,11.17
2022-11-15T02:38:47.661Z,17.63
2022-11-15T02:40:59.680Z,13.53
2022-11-15T02:43:29.440Z,17.23
2022-11-15T02:45:31.947Z,12.67
2022-11-15T02:47:24.268Z,18.13
2022-11-15T02:49:15.927Z,12.40
2022-11-15T02:51:06.665Z,13.60
2022-11-15T02:52:57.149Z,13.30
2022-11-15T02:55:01.802Z,16.23
2022-11-15T02:56:59.912Z,12.80
2022-11-15T02:59:32.606Z,11.03
2022-11-15T03:01:52.063Z,11.17
2022-11-15T03:03:42.423Z,14.27
2022-11-15T03:05:41.974Z,13.67
2022-11-15T03:07:50.835Z,12.37
2022-11-15T03:10:06.184Z,11.80
2022-11-15T03:12:20.549Z,13.63
2022-11-15T03:14:22.491Z,11.30
2022-11-15T03:16:20.648Z,11.10
2022-11-15T03:18:22.063Z,12.30
2022-11-15T03:20:14.653Z,16.37
2022-11-15T03:22:07.099Z,12.33
2022-11-15T03:24:01.216Z,12.23
2022-11-15T03:25:52.693Z,13.90
2022-11-15T03:27:54.047Z,11.90
2022-11-15T03:29:51.254Z,11.40
2022-11-15T03:31:50.579Z,8.80
2022-11-15T03:33:42.257Z,13.70
2022-11-15T03:35:38.172Z,11.17
2022-11-15T03:38:05.092Z,12.13
2022-11-15T03:39:55.812Z,12.47
2022-11-15T03:41:51.961Z,9.77
2022-11-15T03:43:55.820Z,9.63
2022-11-15T03:45:55.381Z,9.70
2022-11-15T03:48:00.540Z,8.97
2022-11-15T03:49:54.614Z,10.50
2022-11-15T03:51:44.769Z,11.40
2022-11-15T03:53:35.041Z,10.47
2022-11-15T03:55:25.536Z,9.40
2022-11-15T03:57:15.829Z,8.60
2022-11-15T03:59:06.186Z,12.83
2022-11-15T04:00:56.663Z,12.17
2022-11-15T04:02:46.967Z,12.83
2022-11-15T04:04:37.347Z,10.97
2022-11-15T04:06:27.713Z,10.20
2022-11-15T04:08:18.141Z,10.03
2022-11-15T04:10:10.949Z,11.13
2022-11-15T04:12:01.014Z,10.00
2022-11-15T04:13:51.442Z,13.07
2022-11-15T04:15:41.738Z,9.63
2022-11-15T04:17:32.163Z,9.70
2022-11-15T04:19:40.938Z,11.17
2022-11-15T04:21:49.760Z,9.73
2022-11-15T04:23:58.654Z,9.33
2022-11-15T04:25:52.123Z,9.17
2022-11-15T04:27:42.187Z,10.07
2022-11-15T04:29:35.936Z,13.40
2022-11-15T04:31:26.090Z,12.60
2022-11-15T04:33:16.355Z,11.67
2022-11-15T04:35:07.466Z,12.17
2022-11-15T04:37:12.794Z,11.80
2022-11-15T04:39:03.615Z,13.20
2022-11-15T04:40:54.100Z,9.60
2022-11-15T04:42:44.632Z,10.63
2022-11-15T04:44:35.610Z,12.33
2022-11-15T04:46:26.347Z,9.67
2022-11-15T04:48:16.383Z,12.10
2022-11-15T04:50:07.318Z,14.40
2022-11-15T04:51:57.395Z,14.53
2022-11-15T04:53:47.735Z,13.80
2022-11-15T04:55:40.207Z,8.20
2022-11-15T04:57:30.683Z,8.57
2022-11-15T04:59:21.115Z,8.90
2022-11-15T05:01:15.282Z,10.40
2022-11-15T05:03:23.970Z,12.53
2022-11-15T05:05:14.555Z,9.00
2022-11-15T05:07:07.655Z,10.10
2022-11-15T05:08:58.119Z,9.33
2022-11-15T05:10:48.764Z,9.43
2022-11-15T05:12:39.116Z,13.50
2022-11-15T05:14:30.163Z,8.63
2022-11-15T05:16:20.688Z,9.30
2022-11-15T05:18:11.352Z,10.93
2022-11-15T05:20:01.662Z,8.70
2022-11-15T05:21:51.827Z,10.20
2022-11-15T05:23:42.392Z,9.30
2022-11-15T05:25:32.562Z,8.77
2022-11-15T05:27:22.907Z,8.87
2022-11-15T05:29:13.275Z,9.90
2022-11-15T05:31:08.708Z,7.93
2022-11-15T05:32:59.040Z,7.70
2022-11-15T05:34:50.036Z,8.93
2022-11-15T05:36:45.612Z,8.00
2022-11-15T05:38:35.725Z,8.03
2022-11-15T05:40:26.952Z,9.67
2022-11-15T05:42:17.564Z,11.30
2022-11-15T05:44:10.446Z,9.67
2022-11-15T05:46:01.168Z,7.90
2022-11-15T05:47:52.408Z,6.93
2022-11-15T05:49:44.860Z,9.73
2022-11-15T05:51:35.205Z,10.17
2022-11-15T05:53:26.884Z,9.70
2022-11-15T05:55:17.265Z,8.80
2022-11-15T05:57:08.140Z,8.80
2022-11-15T05:58:59.970Z,10.50
2022-11-15T06:00:50.378Z,7.53
2022-11-15T06:02:40.886Z,8.70
2022-11-15T06:04:31.573Z,8.73
2022-11-15T06:06:22.083Z,12.00
2022-11-15T06:08:12.440Z,9.17
2022-11-15T06:10:03.040Z,11.10
2022-11-15T06:11:53.442Z,10.43
2022-11-15T06:13:43.677Z,10.93
2022-11-15T06:15:35.178Z,7.73
2022-11-15T06:17:25.661Z,10.50
2022-11-15T06:19:16.126Z,6.83
2022-11-15T06:21:06.954Z,9.10
2022-11-15T06:23:01.883Z,5.63
2022-11-15T06:24:52.152Z,8.83
2022-11-15T06:26:42.472Z,9.60
2022-11-15T06:28:33.645Z,10.13
2022-11-15T06:30:24.856Z,8.70
2022-11-15T06:32:14.884Z,6.97
2022-11-15T06:34:05.071Z,5.70
2022-11-15T06:35:55.405Z,7.37
2022-11-15T06:37:45.826Z,5.50
2022-11-15T06:39:36.328Z,8.63
2022-11-15T06:41:26.760Z,7.40
2022-11-15T06:43:17.170Z,5.10
2022-11-15T06:45:08.623Z,5.00
2022-11-15T06:46:58.799Z,6.73
2022-11-15T06:48:51.919Z,6.10
2022-11-15T06:50:42.398Z,5.50
2022-11-15T06:52:33.440Z,5.50
2022-11-15T06:54:23.459Z,6.10
2022-11-15T06:56:13.875Z,7.07
2022-11-15T06:58:04.212Z,9.10
2022-11-15T06:59:54.756Z,11.40
2022-11-15T07:01:48.027Z,4.63
2022-11-15T07:03:40.419Z,6.10
2022-11-15T07:05:30.801Z,19.63
2022-11-15T07:07:21.208Z,7.73
2022-11-15T07:09:11.696Z,3.10
2022-11-15T07:11:04.821Z,5.10
2022-11-15T07:12:56.520Z,3.10
2022-11-15T07:14:47.032Z,3.40
2022-11-15T07:16:38.300Z,4.30
2022-11-15T07:18:28.384Z,3.40
2022-11-15T07:20:19.233Z,3.37
2022-11-15T07:22:09.345Z,2.97
2022-11-15T07:23:59.700Z,2.83
2022-11-15T07:25:50.065Z,3.70
2022-11-15T07:27:40.388Z,3.47
2022-11-15T07:29:30.678Z,3.07
2022-11-15T07:31:20.970Z,3.40
2022-11-15T07:33:11.227Z,2.90
2022-11-15T07:35:01.592Z,3.00
2022-11-15T07:36:51.884Z,4.10
2022-11-15T07:38:43.332Z,4.90
2022-11-15T07:40:33.741Z,2.63
2022-11-15T07:42:42.756Z,3.70
2022-11-15T07:44:33.169Z,4.73
2022-11-15T07:46:23.768Z,3.03
2022-11-15T07:48:14.220Z,3.73
2022-11-15T07:50:04.779Z,3.10
2022-11-15T07:51:55.038Z,6.47
2022-11-15T07:53:45.677Z,3.30
2022-11-15T07:55:36.002Z,2.67
2022-11-15T07:57:26.098Z,3.07
2022-11-15T07:59:16.491Z,6.33
2022-11-15T08:01:11.422Z,4.33
2022-11-15T08:03:09.050Z,2.53
2022-11-15T08:05:00.007Z,2.73
2022-11-15T08:06:50.147Z,3.97
2022-11-15T08:08:40.662Z,3.77
2022-11-15T08:10:33.341Z,3.60
2022-11-15T08:12:26.595Z,3.03
2022-11-15T08:14:16.751Z,2.77
2022-11-15T08:16:07.520Z,3.00
2022-11-15T08:17:59.656Z,2.80
2022-11-15T08:19:50.102Z,3.23
2022-11-15T08:21:40.452Z,3.07
2022-11-15T08:23:31.985Z,3.13
2022-11-15T08:25:22.563Z,3.23
2022-11-15T08:27:18.556Z,5.30
2022-11-15T08:29:09.536Z,4.40
2022-11-15T08:30:59.609Z,3.33
2022-11-15T08:32:51.309Z,2.70
2022-11-15T08:34:41.690Z,3.13
2022-11-15T08:36:37.021Z,5.90
2022-11-15T08:38:30.394Z,3.27
2022-11-15T08:40:21.711Z,3.73
2022-11-15T08:42:16.936Z,6.10
2022-11-15T08:44:09.975Z,4.87
2022-11-15T08:46:00.515Z,3.03
2022-11-15T08:47:54.214Z,4.10
2022-11-15T08:49:45.091Z,2.77
2022-11-15T08:51:35.472Z,4.30
2022-11-15T08:53:25.986Z,3.53
2022-11-15T08:55:17.647Z,8.00
2022-11-15T08:57:10.302Z,4.63
2022-11-15T08:59:00.604Z,2.67
2022-11-15T09:00:51.056Z,3.30
2022-11-15T09:02:41.675Z,2.20
2022-11-15T09:04:31.880Z,3.97
2022-11-15T09:06:21.794Z,4.60
2022-11-15T09:08:40.346Z,1.77
2022-11-15T09:10:23.747Z,3.60
2022-11-15T09:12:14.174Z,2.00
2022-11-15T09:14:04.689Z,4.20
2022-11-15T09:15:59.324Z,4.90
2022-11-15T09:17:49.493Z,4.57
2022-11-15T09:19:39.845Z,4.70
2022-11-15T09:21:31.401Z,5.60
2022-11-15T09:23:21.797Z,1.87
2022-11-15T09:25:12.115Z,5.33
2022-11-15T09:27:03.445Z,3.20
2022-11-15T09:28:53.952Z,1.73
2022-11-15T09:30:44.077Z,4.97
2022-11-15T09:32:38.973Z,1.90
2022-11-15T09:34:29.749Z,4.27
2022-11-15T09:36:20.007Z,4.63
2022-11-15T09:38:10.409Z,3.90
2022-11-15T09:40:00.698Z,5.40
2022-11-15T09:41:51.087Z,9.30
2022-11-15T09:43:48.587Z,3.60
2022-11-15T09:45:58.772Z,4.13
2022-11-15T09:48:13.163Z,2.40
2022-11-15T09:50:11.505Z,1.50
2022-11-15T09:51:50.747Z,1.90
2022-11-15T09:54:23.831Z,2.70
2022-11-15T09:55:41.035Z,4.20
2022-11-15T09:57:16.993Z,4.73
2022-11-15T09:59:22.446Z,2.83
2022-11-15T10:00:54.943Z,3.63
2022-11-15T10:02:45.112Z,4.73
2022-11-15T10:04:17.587Z,3.13
2022-11-15T10:05:52.762Z,3.03
2022-11-15T10:07:38.464Z,4.73
2022-11-15T10:09:23.763Z,2.10
2022-11-15T10:11:35.668Z,3.97
2022-11-15T10:12:56.602Z,4.33
2022-11-15T10:14:30.997Z,6.47
2022-11-15T10:16:32.076Z,5.13
2022-11-15T10:18:16.997Z,1.83
2022-11-15T10:19:51.598Z,1.70
2022-11-15T10:21:44.950Z,4.57
2022-11-15T10:23:22.413Z,3.60
2022-11-15T10:25:12.348Z,3.10
2022-11-15T10:26:50.155Z,3.73
2022-11-15T10:28:32.436Z,2.43
2022-11-15T10:30:10.979Z,2.97
2022-11-15T10:31:42.657Z,9.10
2022-11-15T10:33:34.598Z,2.77
2022-11-15T10:35:19.790Z,5.07
2022-11-15T10:36:59.657Z,4.33
2022-11-15T10:38:31.645Z,4.60
2022-11-15T10:40:06.626Z,3.07
2022-11-15T10:41:41.179Z,5.07
2022-11-15T10:43:19.631Z,1.93
2022-11-15T10:44:51.386Z,2.70
2022-11-15T10:46:45.474Z,3.60
2022-11-15T10:48:19.799Z,3.47
2022-11-15T10:50:06.056Z,4.73
2022-11-15T10:51:49.963Z,2.73
2022-11-15T10:53:32.458Z,6.73
2022-11-15T10:55:13.426Z,3.20
2022-11-15T10:56:51.399Z,2.13
2022-11-15T10:58:38.611Z,2.17
2022-11-15T11:00:30.842Z,3.27
2022-11-15T11:02:02.623Z,5.67
2022-11-15T11:03:39.363Z,2.90
2022-11-15T11:05:35.231Z,3.60
2022-11-15T11:07:23.361Z,8.43
2022-11-15T11:09:02.173Z,1.60
2022-11-15T11:10:52.341Z,9.03
2022-11-15T11:12:32.264Z,4.43
2022-11-15T11:14:22.599Z,2.13
2022-11-15T11:16:19.617Z,3.27
2022-11-15T11:18:10.245Z,6.43
2022-11-15T11:19:57.904Z,3.30
2022-11-15T11:21:58.495Z,5.23
2022-11-15T11:23:46.304Z,4.90
2022-11-15T11:25:39.359Z,3.50
2022-11-15T11:27:30.474Z,1.23
2022-11-15T11:29:24.571Z,1.67
2022-11-15T11:31:53.640Z,3.60
2022-11-15T11:33:35.312Z,2.50
2022-11-15T11:35:23.201Z,2.03
2022-11-15T11:37:18.069Z,2.60
2022-11-15T11:39:07.002Z,5.70
2022-11-15T11:41:04.961Z,7.10
2022-11-15T11:42:59.041Z,3.60
2022-11-15T11:44:54.132Z,4.67
2022-11-15T11:47:03.463Z,3.23
2022-11-15T11:48:37.821Z,3.00
2022-11-15T11:50:20.271Z,2.77
2022-11-15T11:52:24.322Z,3.53
2022-11-15T11:54:01.991Z,2.73
2022-11-15T11:55:39.411Z,5.10
2022-11-15T11:57:32.395Z,2.43
2022-11-15T11:59:36.444Z,1.43
2022-11-15T12:01:26.568Z,1.60
2022-11-15T12:03:26.826Z,1.30
2022-11-15T12:05:15.042Z,1.30
2022-11-15T12:07:08.989Z,3.03
2022-11-15T12:08:52.868Z,2.03
2022-11-15T12:10:30.685Z,1.33
2022-11-15T12:12:20.181Z,4.10
2022-11-15T12:13:59.098Z,4.80
2022-11-15T12:15:46.229Z,1.57
2022-11-15T12:17:23.629Z,3.67
2022-11-15T12:18:57.840Z,2.47
2022-11-15T12:20:40.241Z,4.57
2022-11-15T12:22:21.803Z,4.20
2022-11-15T12:24:00.015Z,3.23
2022-11-15T12:25:42.093Z,2.83
2022-11-15T12:27:36.480Z,3.80
2022-11-15T12:29:29.846Z,1.27
2022-11-15T12:31:07.352Z,1.40
2022-11-15T12:32:41.986Z,2.30
2022-11-15T12:34:22.995Z,2.83
2022-11-15T12:36:25.557Z,1.40
2022-11-15T12:37:57.838Z,6.03
2022-11-15T12:40:13.932Z,1.43
2022-11-15T12:42:05.833Z,1.87
2022-11-15T12:43:44.498Z,1.93
2022-11-15T12:45:34.026Z,2.33
2022-11-15T12:47:26.754Z,4.77
2022-11-15T12:49:10.812Z,2.97
2022-11-15T12:50:51.402Z,4.00
2022-11-15T12:52:23.202Z,2.50
2022-11-15T12:53:54.833Z,4.90
2022-11-15T12:55:33.320Z,4.83
2022-11-15T12:57:04.976Z,3.53
2022-11-15T12:58:58.021Z,3.20
2022-11-15T13:00:29.595Z,4.00
2022-11-15T13:02:02.223Z,12.27
2022-11-15T13:03:34.494Z,2.67
2022-11-15T13:05:15.434Z,3.83
2022-11-15T13:06:48.964Z,2.23
2022-11-15T13:08:48.023Z,2.60
2022-11-15T13:10:28.622Z,5.73
2022-11-15T13:12:02.674Z,2.53
2022-11-15T13:13:48.690Z,2.93
2022-11-15T13:15:42.855Z,4.13
2022-11-15T13:17:21.073Z,6.90
2022-11-15T13:18:55.915Z,1.63
2022-11-15T13:20:32.866Z,4.87
2022-11-15T13:22:28.267Z,6.83
2022-11-15T13:23:59.968Z,5.17
2022-11-15T13:25:38.040Z,3.83
2022-11-15T13:27:19.920Z,4.10
2022-11-15T13:28:55.526Z,5.07
2022-11-15T13:30:30.092Z,2.43
2022-11-15T13:32:01.798Z,1.43
2022-11-15T13:33:39.982Z,2.77
2022-11-15T13:35:24.003Z,3.83
2022-11-15T13:36:56.464Z,7.90
2022-11-15T13:38:37.074Z,10.03
2022-11-15T13:40:31.279Z,8.90
2022-11-15T13:42:03.272Z,3.83
2022-11-15T13:43:37.928Z,2.43
2022-11-15T13:45:15.528Z,6.37
2022-11-15T13:46:47.169Z,2.20
2022-11-15T13:48:18.774Z,2.93
2022-11-15T13:49:50.455Z,3.60
2022-11-15T13:51:36.189Z,3.90
2022-11-15T13:53:08.049Z,2.27
2022-11-15T13:54:55.179Z,1.60
2022-11-15T13:56:28.933Z,5.13
2022-11-15T13:58:07.419Z,3.30
2022-11-15T13:59:48.229Z,2.07
2022-11-15T14:01:22.311Z,2.93
2022-11-15T14:02:56.129Z,1.07
2022-11-15T14:04:30.668Z,4.43
2022-11-15T14:06:16.157Z,3.60
2022-11-15T14:07:56.401Z,8.13
2022-11-15T14:09:34.601Z,7.03
2022-11-15T14:11:26.929Z,2.97
2022-11-15T14:12:59.113Z,4.80
2022-11-15T14:14:31.227Z,6.40
2022-11-15T14:16:21.819Z,4.63
2022-11-15T14:17:53.477Z,5.73
2022-11-15T14:19:36.529Z,3.67
2022-11-15T14:21:09.145Z,2.10
2022-11-15T14:22:55.757Z,6.63
2022-11-15T14:24:32.419Z,4.00
2022-11-15T14:26:10.253Z,15.67
2022-11-15T14:27:45.458Z,2.33
2022-11-15T14:29:27.882Z,3.43
2022-11-15T14:31:01.554Z,2.30
2022-11-15T14:32:51.575Z,2.03
2022-11-15T14:34:23.657Z,3.37
2022-11-15T14:35:56.920Z,4.17
2022-11-15T14:37:33.880Z,2.27
2022-11-15T14:39:06.167Z,3.83
2022-11-15T14:40:43.855Z,7.00
2022-11-15T14:42:15.730Z,1.87
2022-11-15T14:43:47.690Z,4.00
2022-11-15T14:45:22.511Z,5.17
2022-11-15T14:46:54.135Z,4.10
2022-11-15T14:48:25.848Z,4.63
2022-11-15T14:49:57.522Z,3.33
2022-11-15T14:51:29.127Z,1.70
2022-11-15T14:53:01.263Z,2.40
2022-11-15T14:54:32.870Z,8.30
2022-11-15T14:56:04.740Z,4.10
2022-11-15T14:57:36.419Z,4.77
2022-11-15T14:59:08.042Z,3.63
2022-11-15T15:00:41.683Z,8.50
2022-11-15T15:02:22.404Z,5.70
2022-11-15T15:03:57.804Z,3.37
2022-11-15T15:05:38.863Z,3.77
2022-11-15T15:07:10.720Z,3.93
2022-11-15T15:08:42.446Z,4.23
2022-11-15T15:10:38.906Z,10.13
2022-11-15T15:12:20.563Z,3.37
2022-11-15T15:13:53.371Z,9.27
2022-11-15T15:15:27.501Z,5.03
2022-11-15T15:16:59.132Z,4.80
2022-11-15T15:18:31.166Z,7.03
2022-11-15T15:20:03.355Z,3.90
2022-11-15T15:21:37.460Z,2.63
2022-11-15T15:23:20.452Z,3.53
2022-11-15T15:24:52.237Z,4.77
2022-11-15T15:26:26.806Z,5.43
2022-11-15T15:27:58.642Z,5.67
2022-11-15T15:29:30.244Z,9.13
2022-11-15T15:31:02.741Z,4.80
2022-11-15T15:32:34.343Z,4.97
2022-11-15T15:34:05.992Z,7.80
2022-11-15T15:35:37.712Z,4.90
2022-11-15T15:37:27.014Z,2.77
2022-11-15T15:38:58.729Z,3.03
2022-11-15T15:40:33.109Z,4.30
2022-11-15T15:42:05.204Z,3.07
2022-11-15T15:43:36.909Z,4.30
2022-11-15T15:45:10.139Z,6.23
2022-11-15T15:46:41.903Z,3.17
2022-11-15T15:48:15.433Z,4.50
2022-11-15T15:49:47.557Z,3.63
2022-11-15T15:51:20.652Z,3.10
2022-11-15T15:52:55.293Z,4.60
2022-11-15T15:54:26.932Z,3.23
2022-11-15T15:56:01.833Z,5.70
2022-11-15T15:57:33.544Z,4.83
2022-11-15T15:59:05.308Z,8.80
2022-11-15T16:00:37.780Z,4.20
2022-11-15T16:02:12.905Z,9.20
2022-11-15T16:03:44.611Z,2.93
2022-11-15T16:05:16.655Z,8.20
2022-11-15T16:06:50.776Z,12.00
2022-11-15T16:08:24.842Z,6.93
2022-11-15T16:10:02.962Z,5.57
2022-11-15T16:11:34.609Z,3.73
2022-11-15T16:13:06.327Z,6.67
2022-11-15T16:14:38.020Z,2.70
2022-11-15T16:16:13.963Z,4.10
2022-11-15T16:17:55.599Z,6.17
2022-11-15T16:19:27.223Z,4.20
2022-11-15T16:20:58.930Z,3.00
2022-11-15T16:22:30.725Z,3.60
2022-11-15T16:24:02.611Z,9.00
2022-11-15T16:25:46.087Z,3.73
2022-11-15T16:27:20.641Z,6.83
2022-11-15T16:28:52.966Z,7.33
2022-11-15T16:30:24.641Z,4.33
2022-11-15T16:31:56.880Z,4.50
2022-11-15T16:33:28.574Z,3.70
2022-11-15T16:35:00.227Z,3.20
2022-11-15T16:36:34.692Z,7.30
2022-11-15T16:38:06.351Z,5.70
2022-11-15T16:39:38.018Z,5.90
2022-11-15T16:41:09.646Z,5.43
2022-11-15T16:42:41.303Z,2.77
2022-11-15T16:44:13.524Z,5.33
2022-11-15T16:45:45.332Z,5.87
2022-11-15T16:47:22.741Z,6.03
2022-11-15T16:48:55.035Z,3.17
2022-11-15T16:50:30.760Z,4.23
2022-11-15T16:52:02.507Z,3.53
2022-11-15T16:53:34.264Z,5.53
2022-11-15T16:55:06.472Z,6.17
2022-11-15T16:56:38.904Z,7.60
2022-11-15T16:58:10.644Z,2.90
2022-11-15T16:59:42.273Z,5.33
2022-11-15T17:01:23.993Z,3.53
2022-11-15T17:02:56.275Z,12.87
2022-11-15T17:04:32.903Z,13.93
2022-11-15T17:06:04.837Z,3.23
2022-11-15T17:07:37.114Z,4.83
2022-11-15T17:09:20.911Z,4.90
2022-11-15T17:10:52.903Z,4.00
2022-11-15T17:12:24.600Z,2.50
2022-11-15T17:13:59.859Z,3.87
2022-11-15T17:15:31.579Z,4.20
2022-11-15T17:17:03.331Z,5.47
2022-11-15T17:18:35.863Z,4.77
2022-11-15T17:20:14.430Z,3.10
2022-11-15T17:21:49.280Z,7.60
2022-11-15T17:23:21.063Z,6.53
2022-11-15T17:24:52.742Z,2.90
2022-11-15T17:26:30.452Z,4.60
2022-11-15T17:28:03.289Z,10.00
2022-11-15T17:29:35.060Z,4.37
2022-11-15T17:31:11.876Z,6.30
2022-11-15T17:32:43.679Z,3.50
2022-11-15T17:34:15.287Z,5.70
2022-11-15T17:35:46.908Z,6.33
2022-11-15T17:37:18.542Z,5.10
2022-11-15T17:38:56.558Z,4.73
2022-11-15T17:40:30.788Z,6.20
2022-11-15T17:42:02.532Z,8.40
2022-11-15T17:43:34.659Z,4.27
2022-11-15T17:45:10.120Z,4.73
2022-11-15T17:46:42.320Z,8.20
2022-11-15T17:48:13.988Z,3.53
2022-11-15T17:49:45.602Z,5.57
2022-11-15T17:51:18.582Z,4.70
2022-11-15T17:52:50.495Z,5.53
2022-11-15T17:54:22.112Z,4.97
2022-11-15T17:55:54.014Z,5.77
2022-11-15T17:57:25.740Z,5.70
2022-11-15T17:58:59.536Z,7.53
2022-11-15T18:00:31.265Z,4.03
2022-11-15T18:02:02.855Z,5.40
2022-11-15T18:03:38.672Z,10.27
2022-11-15T18:05:10.367Z,6.30
2022-11-15T18:06:42.337Z,6.13
2022-11-15T18:08:16.715Z,11.53
2022-11-15T18:09:48.510Z,4.33
2022-11-15T18:11:22.481Z,6.50
2022-11-15T18:12:54.311Z,5.33
2022-11-15T18:14:29.403Z,9.83
2022-11-15T18:16:04.715Z,3.20
2022-11-15T18:17:37.679Z,4.40
2022-11-15T18:19:13.235Z,4.10
2022-11-15T18:20:45.147Z,3.80
2022-11-15T18:22:16.868Z,8.90
2022-11-15T18:23:52.528Z,6.10
2022-11-15T18:25:24.604Z,5.40
2022-11-15T18:26:57.703Z,4.73
2022-11-15T18:28:44.415Z,5.80
2022-11-15T18:30:16.296Z,4.73
2022-11-15T18:31:50.692Z,6.43
2022-11-15T18:33:23.545Z,12.57
2022-11-15T18:34:55.959Z,13.17
2022-11-15T18:36:29.911Z,9.00
2022-11-15T18:38:01.773Z,7.20
2022-11-15T18:39:33.623Z,10.03
2022-11-15T18:41:11.457Z,8.93
2022-11-15T18:42:43.133Z,5.97
2022-11-15T18:44:16.094Z,5.07
2022-11-15T18:45:47.829Z,8.17
2022-11-15T18:47:19.465Z,4.30
2022-11-15T18:48:52.548Z,6.83
2022-11-15T18:50:24.293Z,6.20
2022-11-15T18:51:56.950Z,4.10
2022-11-15T18:53:29.827Z,3.60
2022-11-15T18:55:02.163Z,5.70
2022-11-15T18:56:33.946Z,3.83
2022-11-15T18:58:05.587Z,5.70
2022-11-15T18:59:37.483Z,6.40
2022-11-15T19:01:17.076Z,5.53
2022-11-15T19:02:48.802Z,7.30
2022-11-15T19:04:22.055Z,3.63
2022-11-15T19:06:19.645Z,4.40
2022-11-15T19:07:51.438Z,4.63
2022-11-15T19:09:27.238Z,5.70
2022-11-15T19:11:03.394Z,4.43
2022-11-15T19:12:35.075Z,5.10
2022-11-15T19:14:12.733Z,4.93
2022-11-15T19:15:44.510Z,4.00
2022-11-15T19:17:16.326Z,10.30
2022-11-15T19:18:48.318Z,5.20
2022-11-15T19:20:20.682Z,3.23
2022-11-15T19:21:53.125Z,6.50
2022-11-15T19:23:24.787Z,4.53
2022-11-15T19:24:56.619Z,4.57
2022-11-15T19:26:29.375Z,5.37
2022-11-15T19:28:01.035Z,5.30
2022-11-15T19:29:32.676Z,5.37
2022-11-15T19:31:27.078Z,6.00
2022-11-15T19:32:58.735Z,5.50
2022-11-15T19:34:31.047Z,3.87
2022-11-15T19:36:06.412Z,4.17
2022-11-15T19:37:38.077Z,4.53
2022-11-15T19:39:12.757Z,5.43
2022-11-15T19:40:44.447Z,5.97
2022-11-15T19:42:16.120Z,4.77
2022-11-15T19:43:48.155Z,9.60
2022-11-15T19:45:19.790Z,8.30
2022-11-15T19:46:51.893Z,8.20
2022-11-15T19:48:24.005Z,8.70
2022-11-15T19:49:55.648Z,4.10
2022-11-15T19:51:30.663Z,4.40
2022-11-15T19:53:02.280Z,5.17
2022-11-15T19:54:33.909Z,5.17
2022-11-15T19:56:14.221Z,5.13
2022-11-15T19:57:45.861Z,8.80
2022-11-15T19:59:17.512Z,5.37
2022-11-15T20:00:49.528Z,6.40
2022-11-15T20:02:21.260Z,4.47
2022-11-15T20:03:58.408Z,4.40
2022-11-15T20:05:30.068Z,5.90
2022-11-15T20:07:01.818Z,6.10
2022-11-15T20:08:34.590Z,4.20
2022-11-15T20:10:06.789Z,4.53
2022-11-15T20:11:39.252Z,5.80
2022-11-15T20:13:10.851Z,6.03
2022-11-15T20:14:42.605Z,4.10
2022-11-15T20:16:20.049Z,5.17
2022-11-15T20:17:51.780Z,5.03
2022-11-15T20:19:23.397Z,7.17
2022-11-15T20:20:56.486Z,5.23
2022-11-15T20:22:28.251Z,6.77
2022-11-15T20:24:00.389Z,6.90
2022-11-15T20:25:32.114Z,8.93
2022-11-15T20:27:03.893Z,4.70
2022-11-15T20:28:37.244Z,6.53
2022-11-15T20:30:10.276Z,5.03
2022-11-15T20:31:41.881Z,5.53
2022-11-15T20:33:14.531Z,8.60
2022-11-15T20:34:50.185Z,6.57
2022-11-15T20:36:25.617Z,5.87
2022-11-15T20:37:57.304Z,5.30
2022-11-15T20:39:28.959Z,9.87
2022-11-15T20:41:00.788Z,10.70
2022-11-15T20:42:32.571Z,5.30
2022-11-15T20:44:04.231Z,11.50
2022-11-15T20:45:35.866Z,11.80
2022-11-15T20:47:07.489Z,5.63
2022-11-15T20:48:39.821Z,4.53
2022-11-15T20:50:40.439Z,5.60
2022-11-15T20:52:03.276Z,4.87
2022-11-15T20:53:35.419Z,6.17
2022-11-15T20:55:07.482Z,5.40
2022-11-15T20:56:39.164Z,5.70
2022-11-15T20:58:11.602Z,5.73
2022-11-15T20:59:43.317Z,5.00
2022-11-15T21:01:16.163Z,6.10
2022-11-15T21:02:48.310Z,4.93
2022-11-15T21:04:20.014Z,6.70
2022-11-15T21:05:53.612Z,5.40
2022-11-15T21:07:25.527Z,7.97
2022-11-15T21:09:15.788Z,5.50
2022-11-15T21:11:12.078Z,6.03
2022-11-15T21:12:43.813Z,5.80
2022-11-15T21:14:15.553Z,4.83
2022-11-15T21:15:47.355Z,6.17
2022-11-15T21:17:19.078Z,6.90
2022-11-15T21:18:50.734Z,8.20
2022-11-15T21:20:22.368Z,6.13
2022-11-15T21:21:54.128Z,5.93
2022-11-15T21:23:25.787Z,5.57
2022-11-15T21:24:59.292Z,7.73
2022-11-15T21:26:31.049Z,6.80
2022-11-15T21:28:03.047Z,7.70
2022-11-15T21:29:40.611Z,6.77
2022-11-15T21:31:12.286Z,6.67
2022-11-15T21:32:45.306Z,7.97
2022-11-15T21:34:17.670Z,6.80
2022-11-15T21:35:50.294Z,6.80
2022-11-15T21:37:22.003Z,6.10
2022-11-15T21:38:53.717Z,6.20
2022-11-15T21:40:25.419Z,6.23
2022-11-15T21:41:57.047Z,7.30
2022-11-15T21:43:28.691Z,6.60
2022-11-15T21:45:00.346Z,6.57
2022-11-15T21:46:32.354Z,6.77
2022-11-15T21:48:04.271Z,5.90
2022-11-15T21:49:35.950Z,6.20
2022-11-15T21:51:10.169Z,8.50
2022-11-15T21:52:41.874Z,7.03
2022-11-15T21:54:13.502Z,6.37
2022-11-15T21:55:45.502Z,9.90
2022-11-15T21:57:18.845Z,7.17
2022-11-15T21:58:50.479Z,9.33
2022-11-15T22:00:40.824Z,8.10
2022-11-15T22:02:15.460Z,7.20
2022-11-15T22:03:47.159Z,7.40
2022-11-15T22:05:18.799Z,9.47
2022-11-15T22:06:50.961Z,12.30
2022-11-15T22:08:22.988Z,6.43
2022-11-15T22:09:54.654Z,9.17
2022-11-15T22:11:26.406Z,9.40
2022-11-15T22:12:58.049Z,9.40
2022-11-15T22:14:29.646Z,9.33
2022-11-15T22:16:01.373Z,8.40
2022-11-15T22:17:51.522Z,8.40
2022-11-15T22:19:23.211Z,7.17
2022-11-15T22:20:59.150Z,7.97
2022-11-15T22:22:33.158Z,8.17
2022-11-15T22:24:05.386Z,7.90
2022-11-15T22:25:37.083Z,7.57
2022-11-15T22:27:08.894Z,6.83
2022-11-15T22:28:41.011Z,7.43
2022-11-15T22:30:13.055Z,7.07
2022-11-15T22:31:44.754Z,7.30
2022-11-15T22:33:18.135Z,6.10
2022-11-15T22:34:49.873Z,8.43
2022-11-15T22:36:21.865Z,7.53
2022-11-15T22:37:53.738Z,7.83
2022-11-15T22:39:25.518Z,8.00
2022-11-15T22:40:57.686Z,6.50
2022-11-15T22:42:29.595Z,7.30
2022-11-15T22:44:01.407Z,7.77
2022-11-15T22:45:33.586Z,11.13
2022-11-15T22:47:05.399Z,7.50